Time;durP1;ratioP1;P1;durP2;ratioP2;P2;SDS_P1;SDS_P2;PMS_P1;PMS_P2;Temp;Humidity;BMP_temperature;BMP_pressure;BME280_temperature;BME280_humidity;BME280_pressure;Samples;Min_cycle;Max_cycle;Signal;HPM_P1;HPM_P2
2022/01/27 00:01:41;;;;;;;40.75;20.52;;;7.90;99.90;;;8.06;81.96;102517.09;5071707;28;20076;-59
2022/01/27 00:04:15;;;;;;;39.88;21.25;;;7.80;99.90;;;8.07;81.45;102521.50;5071913;28;20055;-59
2022/01/27 00:06:45;;;;;;;44.60;21.90;;;7.80;99.90;;;8.11;81.77;102525.13;5071643;28;20445;-60
2022/01/27 00:09:23;;;;;;;41.20;21.90;;;7.90;99.90;;;8.05;82.37;102533.75;5087230;28;20045;-59
2022/01/27 00:11:52;;;;;;;47.47;23.98;;;7.80;99.90;;;8.05;81.97;102511.78;5071572;28;20053;-59
2022/01/27 00:14:22;;;;;;;43.10;26.15;;;7.80;99.90;;;7.99;80.86;102522.13;5087246;28;20110;-59
2022/01/27 00:16:57;;;;;;;43.45;24.77;;;7.80;99.90;;;8.02;79.38;102525.75;5087261;28;20045;-60
2022/01/27 00:19:25;;;;;;;45.15;26.40;;;7.80;99.90;;;7.98;78.71;102502.78;5071855;28;20048;-60
2022/01/27 00:21:55;;;;;;;49.97;27.48;;;7.80;99.90;;;8.12;78.53;102506.75;5071460;28;20076;-59
2022/01/27 00:24:24;;;;;;;45.35;26.40;;;7.90;99.90;;;8.06;78.05;102509.19;5071923;28;20040;-59
2022/01/27 00:26:53;;;;;;;45.13;27.23;;;7.90;99.90;;;8.04;78.81;102504.72;5087143;28;20514;-59
2022/01/27 00:29:22;;;;;;;47.92;27.40;;;7.80;99.90;;;7.82;78.32;102475.91;5071465;28;20052;-60
2022/01/27 00:31:50;;;;;;;49.80;28.25;;;7.80;99.90;;;8.14;78.45;102523.50;5071519;28;20115;-60
2022/01/27 00:34:19;;;;;;;47.22;27.65;;;7.90;99.90;;;8.08;78.34;102507.50;5071620;28;20048;-60
2022/01/27 00:36:47;;;;;;;46.75;27.70;;;7.90;99.90;;;8.03;78.25;102505.56;5071687;28;20105;-60
2022/01/27 00:39:17;;;;;;;53.92;28.77;;;7.80;99.90;;;8.13;78.00;102505.91;5071454;28;20055;-60
2022/01/27 00:41:45;;;;;;;46.10;27.55;;;7.90;99.90;;;8.23;77.36;102517.63;5071377;28;20048;-60
2022/01/27 00:44:15;;;;;;;46.38;27.05;;;8.00;99.90;;;8.13;77.77;102505.00;5071220;28;20119;-68
2022/01/27 00:46:43;;;;;;;50.40;27.53;;;8.00;99.90;;;8.19;78.15;102506.09;5071139;28;20132;-60
2022/01/27 00:49:12;;;;;;;46.92;26.60;;;8.00;99.90;;;8.14;77.62;102502.44;5071406;28;20422;-60
2022/01/27 00:51:45;;;;;;;49.83;29.27;;;8.00;99.90;;;8.12;78.24;102512.03;5086872;28;20045;-60
2022/01/27 00:54:18;;;;;;;52.92;27.40;;;7.90;99.90;;;8.23;78.61;102518.53;5070067;28;20049;-60
2022/01/27 00:56:54;;;;;;;51.20;27.55;;;8.00;99.90;;;8.30;78.68;102510.84;5071687;28;20052;-60
2022/01/27 00:59:31;;;;;;;55.58;27.50;;;8.00;99.90;;;8.08;79.06;102504.88;5071611;28;20098;-60
2022/01/27 01:02:09;;;;;;;46.40;27.83;;;7.90;99.90;;;8.13;79.08;102499.72;5071587;28;20056;-60
2022/01/27 01:04:41;;;;;;;51.92;28.48;;;7.90;99.90;;;8.24;78.66;102500.97;5071603;28;20037;-60
2022/01/27 01:07:11;;;;;;;51.72;27.70;;;8.00;99.90;;;8.24;78.94;102506.25;5071199;28;20049;-60
2022/01/27 01:15:15;;;;;;;48.42;26.80;;;8.00;99.90;;;8.17;78.82;102454.16;5074564;28;20048;-60
2022/01/27 01:18:01;;;;;;;49.58;27.95;;;7.90;99.90;;;8.09;78.85;102434.63;5075149;28;20044;-60
2022/01/27 01:20:54;;;;;;;54.42;28.05;;;7.90;99.90;;;8.14;78.92;102430.38;5074518;28;20045;-60
2022/01/27 01:29:51;;;;;;;44.78;26.63;;;7.80;99.90;;;7.97;79.67;102439.50;5012073;28;20042;-60
2022/01/27 01:32:31;;;;;;;49.25;27.10;;;7.80;99.90;;;8.03;79.49;102429.16;5074247;28;20105;-60
2022/01/27 01:35:05;;;;;;;47.17;26.85;;;7.80;99.90;;;8.05;79.33;102414.28;5074677;28;20048;-60
2022/01/27 01:37:37;;;;;;;50.35;27.00;;;7.80;99.90;;;8.11;79.67;102412.72;5074328;28;20056;-60
2022/01/27 01:40:08;;;;;;;52.13;27.95;;;7.80;99.90;;;7.99;79.69;102401.78;5074475;28;20094;-60
2022/01/27 01:42:36;;;;;;;50.03;26.95;;;7.80;99.90;;;7.79;79.90;102373.97;5074296;28;20456;-60
2022/01/27 01:45:09;;;;;;;49.47;27.92;;;7.80;99.90;;;7.96;79.75;102414.88;5074719;28;20044;-60
2022/01/27 01:47:37;;;;;;;54.17;28.92;;;7.70;99.90;;;7.97;79.84;102407.88;5074410;28;20458;-60
2022/01/27 01:50:10;;;;;;;52.35;28.50;;;7.70;99.90;;;7.91;80.42;102391.88;5072980;28;20498;-60
2022/01/27 01:52:39;;;;;;;46.17;27.50;;;7.70;99.90;;;7.92;80.49;102414.72;5074093;28;20044;-60
2022/01/27 01:55:10;;;;;;;49.00;27.52;;;7.60;99.90;;;7.92;80.39;102401.56;5074099;28;20119;-60
2022/01/27 01:57:38;;;;;;;51.38;28.42;;;7.70;99.90;;;7.88;80.53;102412.84;5074546;28;20056;-60
2022/01/27 02:00:12;;;;;;;46.15;26.48;;;7.60;99.90;;;7.86;80.94;102407.53;5074552;28;20068;-60
2022/01/27 02:02:42;;;;;;;51.60;27.45;;;7.60;99.90;;;7.85;80.89;102400.50;5074300;28;20040;-60
2022/01/27 02:05:11;;;;;;;50.30;26.83;;;7.60;99.90;;;7.64;81.45;102383.13;5074072;28;20044;-60
2022/01/27 02:07:58;;;;;;;51.60;27.00;;;7.50;99.90;;;7.77;81.97;102420.44;5072520;28;20552;-60
2022/01/27 02:17:48;;;;;;;51.47;26.80;;;7.50;99.90;;;7.74;81.93;102401.00;5072555;28;20453;-60
2022/01/27 02:19:14;;;;;;;44.85;24.75;;;7.50;99.90;;;7.79;82.01;102410.84;5073926;28;20049;-60
2022/01/27 02:21:52;;;;;;;44.20;23.45;;;7.50;99.90;;;7.77;82.01;102409.00;5073385;28;20127;-60
2022/01/27 02:24:25;;;;;;;47.88;24.85;;;7.50;99.90;;;7.71;82.04;102412.34;5073402;28;20040;-60
2022/01/27 02:26:54;;;;;;;41.58;24.80;;;7.50;99.90;;;7.86;81.70;102414.53;5073456;28;20053;-60
2022/01/27 02:29:23;;;;;;;42.55;23.38;;;7.60;99.90;;;7.80;81.73;102409.97;5073194;28;20449;-60
2022/01/27 02:31:54;;;;;;;41.77;23.27;;;7.60;99.90;;;7.83;82.05;102398.66;5073202;28;20098;-60
2022/01/27 02:34:23;;;;;;;42.50;22.52;;;7.60;99.90;;;7.93;81.84;102404.28;5073159;28;20486;-61
2022/01/27 02:36:53;;;;;;;41.47;21.92;;;7.60;99.90;;;7.86;81.89;102398.72;5073067;28;20447;-63
2022/01/27 02:39:23;;;;;;;40.58;21.15;;;7.60;99.90;;;7.73;81.93;102389.56;5073587;28;20459;-60
2022/01/27 02:41:58;;;;;;;48.40;22.58;;;7.60;99.90;;;7.84;82.12;102406.59;5072972;28;20036;-60
2022/01/27 02:44:35;;;;;;;37.25;21.85;;;7.60;99.90;;;7.85;82.09;102405.78;5073247;28;20052;-60
2022/01/27 02:47:04;;;;;;;46.22;21.33;;;7.60;99.90;;;7.93;81.81;102401.63;5073207;28;20383;-63
2022/01/27 02:49:33;;;;;;;42.30;20.10;;;7.70;99.90;;;7.95;82.45;102393.78;5072750;28;20087;-60
2022/01/27 02:52:03;;;;;;;38.28;20.52;;;7.70;99.90;;;7.98;82.49;102378.03;5072775;28;20079;-60
2022/01/27 02:54:31;;;;;;;40.95;19.63;;;7.70;99.90;;;7.98;82.72;102376.31;5072843;28;20036;-60
2022/01/27 02:57:20;;;;;;;43.70;19.35;;;7.70;99.90;;;7.94;83.22;102378.78;5072856;28;20098;-60
2022/01/27 02:59:49;;;;;;;42.58;19.02;;;7.70;99.90;;;7.98;83.38;102360.50;5072901;28;20044;-60
2022/01/27 03:02:18;;;;;;;39.70;18.75;;;7.70;99.90;;;8.04;83.55;102336.97;5072641;28;20075;-60
2022/01/27 03:04:47;;;;;;;39.28;17.23;;;7.80;99.90;;;8.05;83.50;102343.16;5072492;28;20056;-60
2022/01/27 03:07:17;;;;;;;41.90;17.75;;;7.80;99.90;;;8.02;83.89;102346.56;5073100;28;20103;-60
2022/01/27 03:09:46;;;;;;;41.15;18.77;;;7.80;99.90;;;8.06;83.33;102345.81;5072568;28;20056;-60
2022/01/27 03:12:16;;;;;;;38.00;18.15;;;7.80;99.90;;;8.01;83.74;102344.78;5072474;28;20049;-60
2022/01/27 03:14:45;;;;;;;;;;;7.80;99.90;;;8.09;83.69;102335.34;5072875;28;20043;-60
2022/01/27 03:17:13;;;;;;;40.97;18.08;;;7.80;99.90;;;8.07;83.36;102325.63;5072696;28;19920;-60
2022/01/27 03:19:42;;;;;;;38.67;17.52;;;7.90;99.90;;;8.11;83.67;102320.47;5072340;28;20060;-60
2022/01/27 03:22:11;;;;;;;37.42;17.77;;;7.80;99.90;;;8.01;83.55;102310.50;5072318;28;20038;-60
2022/01/27 03:24:41;;;;;;;38.08;17.98;;;7.80;99.90;;;8.03;84.02;102318.50;5072316;28;20129;-60
2022/01/27 03:27:16;;;;;;;44.50;18.27;;;7.80;99.90;;;8.00;84.30;102318.38;5072617;28;20052;-60
2022/01/27 03:29:45;;;;;;;40.90;19.52;;;7.80;99.90;;;8.05;84.65;102312.41;5072393;28;20464;-60
2022/01/27 03:32:13;;;;;;;41.58;18.85;;;7.80;99.90;;;8.08;84.63;102303.69;5071551;28;20135;-60
2022/01/27 03:34:42;;;;;;;43.50;19.02;;;7.80;99.90;;;8.11;84.56;102301.13;5072066;28;20394;-60
2022/01/27 03:37:11;;;;;;;44.63;18.15;;;7.90;99.90;;;8.10;84.67;102297.63;5072005;28;20120;-60
2022/01/27 03:39:42;;;;;;;45.30;19.23;;;7.90;99.90;;;8.10;84.87;102295.00;5072354;28;20482;-60
2022/01/27 03:42:11;;;;;;;49.00;20.15;;;7.90;99.90;;;8.10;85.37;102289.72;5072156;28;20067;-60
2022/01/27 03:44:39;;;;;;;38.88;19.35;;;7.90;99.90;;;8.21;85.41;102298.81;5072111;28;20115;-60
2022/01/27 03:47:08;;;;;;;39.80;19.33;;;7.90;99.90;;;8.21;85.48;102280.38;5071792;28;20036;-60
2022/01/27 03:49:36;;;;;;;50.30;19.70;;;8.00;99.90;;;8.17;85.76;102273.22;5071918;28;20048;-60
2022/01/27 03:52:05;;;;;;;44.58;19.40;;;7.90;99.90;;;8.10;86.13;102244.94;5071932;28;20174;-60
2022/01/27 03:54:34;;;;;;;42.22;19.48;;;8.00;99.90;;;8.24;86.37;102276.94;5071683;28;20144;-60
2022/01/27 03:57:04;;;;;;;39.08;18.77;;;8.00;99.90;;;8.33;86.13;102286.84;5072159;28;20040;-60
2022/01/27 03:59:33;;;;;;;48.97;19.77;;;8.10;99.90;;;8.23;86.06;102275.13;5071661;28;20147;-60
2022/01/27 04:02:04;;;;;;;40.80;18.92;;;8.00;99.90;;;8.23;86.16;102276.03;5071510;28;20064;-60
2022/01/27 04:04:33;;;;;;;44.53;19.42;;;8.00;99.90;;;8.26;86.18;102263.81;5071831;28;20048;-60
2022/01/27 04:07:04;;;;;;;41.40;18.90;;;8.00;99.90;;;8.25;86.65;102270.81;5070428;28;20060;-60
2022/01/27 04:09:32;;;;;;;44.42;19.33;;;8.00;99.90;;;8.21;87.07;102271.56;5071366;28;20131;-60
2022/01/27 04:12:00;;;;;;;46.35;19.33;;;8.00;99.90;;;8.26;86.48;102254.19;5071397;28;20106;-60
2022/01/27 04:14:30;;;;;;;39.42;17.33;;;8.00;99.90;;;8.32;86.71;102258.72;5071533;28;20072;-60
2022/01/27 04:16:58;;;;;;;45.95;19.02;;;8.10;99.90;;;8.35;86.64;102253.50;5071831;28;20129;-60
2022/01/27 04:19:27;;;;;;;40.47;16.83;;;8.20;99.90;;;8.45;86.74;102260.81;5071337;28;20079;-60
2022/01/27 04:21:56;;;;;;;39.13;17.30;;;8.20;99.90;;;8.42;86.89;102250.22;5071373;28;20490;-60
2022/01/27 04:24:24;;;;;;;41.75;18.52;;;8.20;99.90;;;8.43;86.58;102255.50;5071458;28;20044;-60
2022/01/27 04:27:01;;;;;;;40.50;18.40;;;8.20;99.90;;;8.46;86.72;102257.34;5071361;28;20053;-60
2022/01/27 04:29:34;;;;;;;38.25;18.33;;;8.20;99.90;;;8.13;87.15;102205.47;5071606;28;20060;-60
2022/01/27 04:32:07;;;;;;;41.50;16.85;;;8.20;99.90;;;8.54;87.25;102246.13;5071479;28;20374;-60
2022/01/27 04:34:38;;;;;;;41.60;17.27;;;8.30;99.90;;;8.56;87.00;102259.34;5071322;28;20056;-60
2022/01/27 04:37:09;;;;;;;38.10;18.13;;;8.30;99.90;;;8.63;86.65;102241.06;5071719;28;20045;-60
2022/01/27 04:39:43;;;;;;;46.30;17.52;;;8.40;99.90;;;8.55;86.85;102232.09;5071270;28;20097;-60
2022/01/27 04:42:16;;;;;;;44.60;18.92;;;8.30;99.90;;;8.52;87.00;102236.38;5071355;28;20098;-60
2022/01/27 04:45:09;;;;;;;43.08;17.33;;;8.30;99.90;;;8.54;87.18;102229.41;5075142;28;20127;-60
2022/01/27 04:47:43;;;;;;;47.38;18.55;;;8.30;99.90;;;8.60;87.30;102224.28;5075682;28;20048;-60
2022/01/27 04:50:11;;;;;;;47.55;18.20;;;8.30;99.90;;;8.52;87.71;102225.84;5075672;28;20044;-60
2022/01/27 04:52:44;;;;;;;45.03;17.77;;;8.30;99.90;;;8.56;87.43;102232.97;5075496;28;20041;-60
2022/01/27 04:55:15;;;;;;;47.75;18.58;;;8.40;99.90;;;8.55;87.24;102232.09;5075395;28;20048;-60
2022/01/27 04:57:45;;;;;;;41.78;17.23;;;8.40;99.90;;;8.64;87.64;102241.97;5075402;28;20056;-60
2022/01/27 05:00:18;;;;;;;46.28;18.25;;;8.40;99.90;;;8.60;87.31;102241.00;5075627;28;20044;-60
2022/01/27 05:02:54;;;;;;;47.53;18.88;;;8.40;99.90;;;8.66;87.63;102229.72;5074959;28;20049;-60
2022/01/27 05:05:22;;;;;;;47.45;18.48;;;8.40;99.90;;;8.69;87.67;102240.38;5074999;28;20048;-58
2022/01/27 05:07:57;;;;;;;47.97;18.67;;;8.40;99.90;;;8.67;87.24;102226.25;5074820;28;20040;-60
2022/01/27 05:10:30;;;;;;;43.22;17.98;;;8.50;99.90;;;8.67;87.34;102226.25;5074992;28;20045;-61
2022/01/27 05:13:06;;;;;;;48.03;18.63;;;8.50;99.90;;;8.52;87.80;102188.91;5074488;28;20048;-59
2022/01/27 05:15:42;;;;;;;43.13;18.25;;;8.50;99.90;;;8.62;87.67;102212.03;5075277;28;20078;-62
2022/01/27 05:18:11;;;;;;;51.65;18.95;;;8.40;99.90;;;8.70;88.00;102226.31;5074553;28;20322;-60
2022/01/27 05:20:40;;;;;;;40.22;17.58;;;8.50;99.90;;;8.68;88.02;102221.00;5074782;28;20123;-60
2022/01/27 05:23:08;;;;;;;41.92;17.50;;;8.50;99.90;;;8.75;87.68;102230.84;5074421;28;20036;-60
2022/01/27 05:25:37;;;;;;;47.03;17.23;;;8.50;99.90;;;8.78;87.61;102232.66;5074402;28;20075;-63
2022/01/27 05:28:06;;;;;;;38.10;17.08;;;8.50;99.90;;;8.82;87.47;102222.25;5074342;28;20045;-60
2022/01/27 05:30:36;;;;;;;52.42;18.35;;;8.60;99.90;;;8.77;87.99;102215.03;5073068;28;20049;-60
2022/01/27 05:33:05;;;;;;;43.05;18.15;;;8.60;99.90;;;8.77;87.93;102212.41;5074361;28;20458;-60
2022/01/27 05:35:33;;;;;;;46.05;17.60;;;8.60;99.90;;;8.80;88.04;102213.41;5074398;28;20064;-60
2022/01/27 05:38:02;;;;;;;44.15;17.02;;;8.60;99.90;;;8.83;87.95;102207.28;5074656;28;20079;-60
2022/01/27 05:40:30;;;;;;;36.13;17.17;;;8.60;99.90;;;8.73;88.20;102187.72;5074392;28;20052;-60
2022/01/27 05:42:59;;;;;;;45.05;16.88;;;8.60;99.90;;;8.82;88.14;102198.50;5074109;28;20049;-60
2022/01/27 05:45:27;;;;;;;39.85;16.73;;;8.60;99.90;;;8.85;88.50;102205.56;5074135;28;20068;-60
2022/01/27 05:47:57;;;;;;;39.33;15.98;;;8.60;99.90;;;8.88;88.42;102195.97;5074037;28;20049;-60
2022/01/27 05:50:26;;;;;;;40.95;15.98;;;8.70;99.90;;;8.94;88.62;102197.91;5073864;28;20465;-60
2022/01/27 05:52:55;;;;;;;40.75;17.50;;;8.70;99.90;;;8.93;88.04;102190.81;5073910;28;20044;-60
2022/01/27 05:55:23;;;;;;;43.80;16.95;;;8.70;99.90;;;8.82;87.95;102166.84;5073034;28;20545;-60
2022/01/27 05:57:52;;;;;;;45.65;17.38;;;8.70;99.90;;;8.81;88.34;102169.41;5073909;28;20040;-60
2022/01/27 06:00:20;;;;;;;40.90;16.50;;;8.70;99.90;;;8.85;88.55;102160.72;5073871;28;20183;-60
2022/01/27 06:02:49;;;;;;;42.83;16.92;;;8.70;99.90;;;8.84;88.74;102183.59;5073788;28;20048;-60
2022/01/27 06:05:18;;;;;;;49.33;17.33;;;8.60;99.90;;;8.92;88.90;102176.72;5074347;28;20050;-59
2022/01/27 06:07:47;;;;;;;41.55;16.60;;;8.70;99.90;;;8.88;88.93;102166.94;5074034;28;20418;-59
2022/01/27 06:10:15;;;;;;;37.70;16.27;;;8.70;99.90;;;8.84;89.39;102164.22;5073609;28;20044;-59
2022/01/27 06:12:49;;;;;;;44.83;16.38;;;8.70;99.90;;;9.03;89.14;102169.06;5073754;28;20102;-59
2022/01/27 06:15:18;;;;;;;45.97;16.52;;;8.70;99.90;;;8.97;89.03;102168.94;5073706;28;20036;-59
2022/01/27 06:17:47;;;;;;;39.90;16.73;;;8.70;99.90;;;9.05;89.20;102167.38;5074170;28;20039;-60
2022/01/27 06:20:16;;;;;;;52.05;17.20;;;8.80;99.90;;;8.97;88.90;102163.66;5073818;28;20052;-60
2022/01/27 06:22:46;;;;;;;50.83;17.00;;;8.70;99.90;;;8.95;89.06;102176.81;5074258;28;20076;-60
2022/01/27 06:25:16;;;;;;;43.70;16.45;;;8.70;99.90;;;9.00;89.55;102174.28;5073450;28;20064;-60
2022/01/27 06:27:45;;;;;;;40.42;16.33;;;8.80;99.90;;;9.02;89.30;102164.63;5073444;28;20040;-60
2022/01/27 06:30:13;;;;;;;42.45;16.65;;;8.80;99.90;;;9.04;89.54;102177.00;5073164;28;20060;-60
2022/01/27 06:32:42;;;;;;;42.55;16.27;;;8.80;99.90;;;9.04;89.51;102182.28;5073210;28;20120;-60
2022/01/27 06:35:11;;;;;;;40.10;16.08;;;8.80;99.90;;;9.13;89.22;102173.72;5073083;28;20041;-60
2022/01/27 06:37:41;;;;;;;42.55;16.17;;;8.90;99.90;;;9.14;89.04;102164.91;5071972;28;20132;-60
2022/01/27 06:40:14;;;;;;;43.30;16.45;;;8.90;99.90;;;9.16;89.45;102152.66;5073066;28;20087;-61
2022/01/27 06:42:43;;;;;;;41.53;16.35;;;8.90;99.90;;;9.12;89.37;102147.28;5088670;28;20094;-61
2022/01/27 06:45:12;;;;;;;44.80;14.65;;;8.90;99.90;;;9.10;90.16;102156.03;5072913;28;20068;-60
2022/01/27 06:47:41;;;;;;;40.17;15.57;;;8.90;99.90;;;9.03;89.75;102145.31;5072765;28;20044;-61
2022/01/27 06:50:10;;;;;;;42.40;15.68;;;8.90;99.90;;;9.05;90.14;102147.16;5072634;28;20118;-62
2022/01/27 06:52:40;;;;;;;43.10;15.27;;;8.90;99.90;;;9.10;89.60;102155.13;5071502;28;20135;-61
2022/01/27 06:55:12;;;;;;;41.20;16.05;;;8.90;99.90;;;9.10;90.50;102185.06;5072740;28;20071;-62
2022/01/27 06:57:41;;;;;;;38.72;15.00;;;8.90;99.90;;;9.03;90.31;102155.88;5072713;28;20049;-61
2022/01/27 07:00:11;;;;;;;43.50;15.80;;;8.90;99.90;;;9.18;90.24;102172.03;5072426;28;20083;-61
2022/01/27 07:02:39;;;;;;;42.60;15.07;;;8.90;99.90;;;9.24;90.16;102168.66;5072507;28;20193;-61
2022/01/27 07:05:08;;;;;;;37.53;15.35;;;9.00;99.90;;;9.37;89.79;102160.16;5072523;28;20455;-61
2022/01/27 07:07:37;;;;;;;40.47;15.13;;;9.10;99.90;;;9.25;89.99;102171.34;5072470;28;20098;-62
2022/01/27 07:10:07;;;;;;;40.85;14.80;;;9.00;99.90;;;8.93;90.33;102104.66;5072430;28;20068;-62
2022/01/27 07:12:40;;;;;;;42.90;15.32;;;9.10;99.90;;;9.25;91.64;102176.63;5070772;28;20464;-62
2022/01/27 07:15:10;;;;;;;44.13;15.90;;;9.10;99.90;;;9.19;92.21;102175.59;5072453;28;20075;-61
2022/01/27 07:17:39;;;;;;;36.38;15.07;;;9.00;99.90;;;8.90;92.73;102106.34;5072306;28;20044;-61
2022/01/27 07:20:09;;;;;;;45.20;16.08;;;9.00;99.90;;;9.30;92.78;102184.63;5072298;28;20109;-61
2022/01/27 07:22:37;;;;;;;44.17;17.02;;;9.10;99.90;;;9.29;92.83;102173.16;5072241;28;20465;-61
2022/01/27 07:25:08;;;;;;;49.00;18.08;;;9.10;99.90;;;9.28;93.84;102191.63;5072275;28;20474;-61
2022/01/27 07:27:38;;;;;;;41.75;14.77;;;9.00;99.90;;;9.31;93.89;102189.94;5072254;28;20105;-61
2022/01/27 07:30:08;;;;;;;44.22;15.73;;;9.00;99.90;;;9.34;93.78;102190.00;5072693;28;20111;-61
2022/01/27 07:32:38;;;;;;;46.33;15.10;;;9.10;99.90;;;9.42;94.09;102190.19;5072406;28;20055;-61
2022/01/27 07:35:07;;;;;;;39.70;15.25;;;9.10;99.90;;;9.44;94.02;102194.63;5072073;28;20053;-61
2022/01/27 07:37:36;;;;;;;44.42;15.98;;;9.20;99.90;;;9.32;94.06;102189.09;5072010;28;20395;-61
2022/01/27 07:40:06;;;;;;;42.47;15.95;;;9.10;99.90;;;9.27;94.67;102188.06;5072280;28;20056;-61
2022/01/27 07:42:34;;;;;;;45.53;15.15;;;9.10;99.90;;;9.43;94.91;102197.22;5071979;28;20052;-61
2022/01/27 07:45:05;;;;;;;38.53;15.40;;;9.10;99.90;;;9.45;94.55;102198.16;5072018;28;20037;-61
2022/01/27 07:47:35;;;;;;;38.70;15.07;;;9.20;99.90;;;9.34;94.59;102197.94;5072094;28;20044;-61
2022/01/27 07:50:05;;;;;;;38.63;14.32;;;9.10;99.90;;;9.32;94.90;102194.38;5072644;28;20115;-61
2022/01/27 07:52:33;;;;;;;44.97;15.70;;;9.10;99.90;;;9.39;95.20;102200.69;5072220;28;20052;-61
2022/01/27 07:55:02;;;;;;;39.97;14.82;;;9.10;99.90;;;9.40;95.39;102199.81;5072129;28;20177;-61
2022/01/27 07:57:30;;;;;;;46.95;16.23;;;9.20;99.90;;;9.47;95.38;102202.63;5072110;28;20068;-61
2022/01/27 07:59:59;;;;;;;41.83;15.57;;;9.20;99.90;;;9.34;95.36;102192.66;5071752;28;20529;-61
2022/01/27 08:02:28;;;;;;;43.17;16.48;;;9.20;99.90;;;9.44;95.42;102210.50;5071853;28;20052;-61
2022/01/27 08:04:58;;;;;;;44.28;15.45;;;9.20;99.90;;;9.42;96.30;102206.91;5071689;28;20072;-61
2022/01/27 08:07:26;;;;;;;35.40;15.50;;;9.20;99.90;;;9.40;96.79;102202.44;5072166;28;20065;-61
2022/01/27 08:09:54;;;;;;;46.72;16.27;;;9.20;99.90;;;9.38;96.72;102199.78;5071566;28;20075;-61
2022/01/27 08:12:23;;;;;;;37.47;15.65;;;9.10;99.90;;;9.43;96.62;102206.03;5071568;28;20084;-61
2022/01/27 08:14:51;;;;;;;41.15;16.40;;;9.20;99.90;;;9.41;96.60;102205.13;5071634;28;20048;-61
2022/01/27 08:17:20;;;;;;;41.63;15.77;;;9.20;99.90;;;9.51;96.75;102222.94;5071508;28;20040;-62
2022/01/27 08:19:50;;;;;;;42.45;15.90;;;9.20;99.90;;;9.58;96.68;102224.00;5071103;28;20049;-61
2022/01/27 08:22:23;;;;;;;45.65;15.57;;;9.30;99.90;;;9.60;96.59;102217.84;5071708;28;20123;-61
2022/01/27 08:24:51;;;;;;;43.58;15.93;;;9.30;99.90;;;9.55;96.56;102216.88;5071400;28;20064;-61
2022/01/27 08:27:25;;;;;;;46.80;15.88;;;9.30;99.90;;;9.58;96.87;102209.00;5071370;28;20044;-61
2022/01/27 08:30:02;;;;;;;38.55;15.85;;;9.30;99.90;;;9.56;97.11;102212.50;5071669;28;20056;-61
2022/01/27 08:32:44;;;;;;;45.38;16.50;;;9.30;99.90;;;9.55;97.12;102187.81;5071125;28;20063;-61
2022/01/27 08:35:15;;;;;;;41.42;18.48;;;9.40;99.90;;;9.35;97.33;102180.34;5071353;28;20040;-61
2022/01/27 08:37:44;;;;;;;43.35;16.75;;;9.30;99.90;;;9.53;97.73;102210.69;5071513;28;20068;-61
2022/01/27 08:40:15;;;;;;;40.15;16.30;;;9.30;99.90;;;9.51;97.89;102183.34;5071154;28;20044;-61
2022/01/27 08:43:04;;;;;;;40.97;16.83;;;9.40;99.90;;;9.63;97.87;102202.09;5071335;28;20048;-61
2022/01/27 08:45:33;;;;;;;45.80;15.80;;;9.40;99.90;;;9.48;98.01;102166.53;5071342;28;20070;-61
2022/01/27 08:48:01;;;;;;;39.80;15.13;;;9.50;99.90;;;9.70;97.84;102197.81;5071167;28;20119;-61
2022/01/27 08:50:31;;;;;;;38.65;14.77;;;9.50;99.90;;;9.67;97.76;102197.75;5071007;28;20041;-61
2022/01/27 08:53:00;;;;;;;43.85;15.25;;;9.50;99.90;;;9.64;97.92;102209.13;5071016;28;20490;-60
2022/01/27 08:55:29;;;;;;;44.60;14.15;;;9.50;99.90;;;9.62;98.18;102192.38;5071355;28;20098;-60
2022/01/27 08:57:57;;;;;;;36.67;14.85;;;9.40;99.90;;;9.61;98.12;102210.84;5071278;28;20044;-60
2022/01/27 09:00:26;;;;;;;40.80;15.50;;;9.40;99.90;;;9.60;98.14;102206.44;5070986;28;20039;-60
2022/01/27 09:02:56;;;;;;;40.17;13.95;;;9.40;99.90;;;9.60;98.42;102209.06;5070961;28;20490;-60
2022/01/27 09:05:25;;;;;;;43.20;14.85;;;9.40;99.90;;;9.59;97.85;102221.38;5071155;28;20057;-61
2022/01/27 09:07:57;;;;;;;42.50;15.48;;;9.40;99.90;;;9.51;98.09;102207.09;5071090;28;20094;-60
2022/01/27 09:10:27;;;;;;;42.67;13.50;;;9.30;99.90;;;9.53;98.13;102209.78;5071575;28;20053;-60
2022/01/27 09:12:55;;;;;;;45.00;14.38;;;9.30;99.90;;;9.65;97.68;102207.41;5070859;28;20506;-60
2022/01/27 09:15:24;;;;;;;44.72;14.30;;;9.40;99.90;;;9.60;97.27;102194.09;5071029;28;20105;-60
2022/01/27 09:17:53;;;;;;;42.28;14.75;;;9.40;99.90;;;9.48;98.14;102199.13;5070980;28;20102;-60
2022/01/27 09:20:21;;;;;;;47.47;14.23;;;9.30;99.90;;;9.60;97.74;102204.66;5071026;28;20040;-60
2022/01/27 09:22:51;;;;;;;45.50;14.70;;;9.30;99.90;;;9.63;97.48;102188.88;5070763;28;20045;-60
2022/01/27 09:25:25;;;;;;;43.20;15.45;;;9.40;99.90;;;9.65;97.87;102195.09;5070875;28;20105;-61
2022/01/27 09:27:55;;;;;;;41.58;13.35;;;9.40;99.90;;;9.81;97.29;102196.28;5071323;28;20505;-61
2022/01/27 09:30:24;;;;;;;;;;;9.50;99.90;;;9.83;97.04;102205.16;5072161;28;20045;-60
2022/01/27 09:32:52;;;;;;;43.75;13.05;;;9.60;99.90;;;9.84;96.63;102196.34;5074577;28;19924;-61
2022/01/27 09:35:21;;;;;;;46.17;14.27;;;9.60;99.90;;;9.76;96.93;102193.53;5074566;28;20037;-61
2022/01/27 09:37:50;;;;;;;40.40;12.70;;;9.60;99.90;;;9.82;97.32;102196.31;5074371;28;20041;-60
2022/01/27 09:40:19;;;;;;;33.22;13.18;;;9.60;99.90;;;9.84;96.89;102191.94;5074166;28;20052;-61
2022/01/27 09:42:52;;;;;;;34.78;13.73;;;9.60;99.90;;;9.72;96.76;102165.28;5074164;28;20121;-60
2022/01/27 09:45:21;;;;;;;40.80;12.63;;;9.60;99.90;;;9.88;97.06;102204.38;5074746;28;20050;-60
2022/01/27 09:47:57;;;;;;;37.22;12.77;;;9.70;99.90;;;9.89;96.67;102194.69;5074400;28;20045;-60
2022/01/27 09:50:45;;;;;;;38.30;13.05;;;9.70;99.90;;;9.98;96.76;102197.50;5074324;28;20048;-61
2022/01/27 09:53:15;;;;;;;31.70;12.63;;;9.70;99.90;;;9.80;96.23;102178.63;5073936;28;20086;-60
2022/01/27 09:55:44;;;;;;;40.97;14.00;;;9.70;99.90;;;9.92;96.09;102186.81;5089365;28;20135;-60
2022/01/27 09:58:13;;;;;;;30.80;12.82;;;9.80;99.90;;;10.02;96.45;102197.59;5073997;28;20045;-60
2022/01/27 10:00:42;;;;;;;37.00;13.80;;;9.80;99.90;;;10.07;95.57;102194.13;5073929;28;20040;-60
2022/01/27 10:03:17;;;;;;;31.73;13.23;;;9.80;99.90;;;10.07;95.88;102200.31;5074416;28;20056;-60
2022/01/27 10:05:47;;;;;;;27.15;12.32;;;9.80;99.90;;;10.05;95.78;102188.81;5073811;28;20466;-60
2022/01/27 10:08:19;;;;;;;35.97;12.00;;;9.90;99.90;;;10.13;95.92;102202.22;5074151;28;20049;-60
2022/01/27 10:10:54;;;;;;;33.80;11.88;;;9.90;99.90;;;10.11;95.63;102199.53;5073951;28;20040;-60
2022/01/27 10:13:34;;;;;;;31.27;11.60;;;9.90;99.90;;;10.13;95.35;102191.63;5073736;28;20055;-60
2022/01/27 10:16:02;;;;;;;42.55;11.75;;;10.00;99.90;;;9.90;95.47;102155.06;5073627;28;20045;-60
2022/01/27 10:18:35;;;;;;;37.47;13.27;;;10.00;99.90;;;10.21;95.11;102204.16;5073527;28;20032;-61
2022/01/27 10:21:06;;;;;;;37.47;12.52;;;10.00;99.90;;;9.85;95.03;102135.56;5072456;28;20068;-60
2022/01/27 10:23:37;;;;;;;37.78;12.75;;;10.10;99.90;;;10.23;95.24;102212.09;5073787;28;20320;-60
2022/01/27 10:26:16;;;;;;;38.30;11.80;;;10.10;99.90;;;10.28;95.09;102215.75;5073917;28;20177;-60
2022/01/27 10:28:57;;;;;;;31.27;11.88;;;10.10;99.90;;;10.23;95.24;102218.28;5073399;28;20048;-60
2022/01/27 10:31:28;;;;;;;32.20;10.65;;;10.10;99.90;;;10.27;94.76;102211.31;5073257;28;20409;-60
2022/01/27 10:34:02;;;;;;;36.83;11.60;;;10.10;99.90;;;10.22;95.01;102212.97;5089007;28;20052;-60
2022/01/27 10:36:35;;;;;;;34.17;11.55;;;10.10;99.90;;;10.24;95.07;102203.31;5073236;28;20094;-60
2022/01/27 10:39:06;;;;;;;32.28;11.73;;;10.10;99.90;;;10.22;95.24;102215.63;5073317;28;20049;-60
2022/01/27 10:41:38;;;;;;;35.72;10.85;;;10.10;99.90;;;10.18;95.30;102208.50;5072851;28;20044;-60
2022/01/27 10:44:15;;;;;;;29.83;10.15;;;10.10;99.90;;;10.18;95.73;102214.66;5073163;28;20052;-60
2022/01/27 10:47:04;;;;;;;26.48;10.48;;;10.00;99.90;;;10.29;95.66;102207.81;5073128;28;20516;-60